Aeroporto :
LOGIN :

Iscrizione | Disclaimer

   EN    FR    IT 

 










Sommario :    VFR   VFR Marginale   IFR   IFR Intensivo   IFR Molto Intensivo
Visibilità : 
Base nubi : 
>= 8 km
>= 3000ft
5 / 8 km
1000 / 3000 ft
1500m / 5 km
500 / 1000 ft
800 / 1500m
200 / 500 ft
< 800m
< 200 ft
Simboli :   Temporali  Nebbia  Neve Forte  Precipitazioni Forti  Vento > 20 kt
SIGMETs :   Varie  Temporali  Ghiacco  Turbolenza  Onda orograficha  Ceneri Vulcaniche






- Altitudine del aeroporto : 23 ft
- Codice IATA : XFW


EDHI - Hamburg Finkenwerder

ULTIMO METAR :
  • 181020Z 27010KT CAVOK 27/21 Q1013

METARs OBSOLETI :
  • 180950Z 27007KT CAVOK 27/21 Q1013
  • 180920Z 27006KT CAVOK 26/21 Q1013
  • 180850Z 27005KT 210V310 CAVOK 26/20 Q1013
  • 180820Z 28004KT 250V320 CAVOK 25/19 Q1013
  • 180750Z 29003KT 240V330 CAVOK 25/17 Q1013

TAF TAF EDHI
Valido dal 18 a 09 ore il 18 a 18 ore UTC


180800Z 1809/1818 34005KT CAVOK
TEMPO 1809/1818 VRB03KT
PROB30
TEMPO 1815/1818 22020G40KT 2500 TSRAGR BKN040CB



MetMap, La meteo Aeronautica in un colpo d'occhio ! - Copyright ORBIFLY Dicembre 2007 - Disclaimer

ORBIFLY MET'MAP TEAM :

Programmazione e sviluppo : Alexandra Zaïnal
Concezione : Baudouin d'Aumeries
Aiuto per la programmazione : Marc-Olivier Méhu
Supporto tecnico e logistico : Manuel Goepfert
Aiuto per la traduzione : Arnaldo La Scala

Contatto : metmap@orbifly.com




FONTI E CREDITI :

   NOAA